createdAt,value
2023-01-31T00:03:39.052Z,-1.6
2023-01-31T00:15:39.780Z,-1.2
2023-01-31T00:27:39.418Z,-0.8
2023-01-31T00:39:39.163Z,-0.8
2023-01-31T00:51:39.134Z,-1.7
2023-01-31T01:03:39.156Z,-1.7
2023-01-31T01:15:39.191Z,-1.8
2023-01-31T01:27:39.126Z,-2.2
2023-01-31T01:39:39.145Z,-2.0
2023-01-31T01:51:39.180Z,-1.9
2023-01-31T02:03:39.163Z,-2.1
2023-01-31T02:15:39.171Z,-2.6
2023-01-31T02:27:39.170Z,-2.1
2023-01-31T02:39:39.204Z,-2.1
2023-01-31T02:51:39.150Z,-2.2
2023-01-31T03:03:39.154Z,-2.9
2023-01-31T03:15:39.163Z,-2.9
2023-01-31T03:27:39.226Z,-3.0
2023-01-31T03:39:39.228Z,-2.7
2023-01-31T03:51:39.197Z,-1.8
2023-01-31T04:03:39.213Z,-0.6
2023-01-31T04:15:39.252Z,-0.8
2023-01-31T04:27:39.235Z,-1.3
2023-01-31T04:39:39.225Z,-1.8
2023-01-31T04:51:39.239Z,-2.3
2023-01-31T05:03:39.217Z,-2.3
2023-01-31T05:15:39.218Z,-2.5
2023-01-31T05:27:39.387Z,-2.5
2023-01-31T05:40:39.228Z,-2.8
2023-01-31T05:52:39.277Z,-1.4
2023-01-31T06:04:39.281Z,-0.9
2023-01-31T06:16:39.294Z,-1.7
2023-01-31T06:29:39.397Z,-2.0
2023-01-31T06:42:39.396Z,-2.2
2023-01-31T06:49:04.014Z,-2.3
2023-01-31T07:02:03.984Z,-1.5
2023-01-31T07:15:04.062Z,-0.9
2023-01-31T07:21:48.833Z,-0.9
2023-01-31T07:34:48.107Z,-0.7
2023-01-31T07:47:48.544Z,-0.6
2023-01-31T08:00:48.391Z,1.4
2023-01-31T08:13:48.263Z,2.1
2023-01-31T08:26:48.425Z,3.5
2023-01-31T08:39:48.319Z,5.4
2023-01-31T08:52:48.399Z,6.8
2023-01-31T09:05:48.508Z,7.6
2023-01-31T09:18:48.511Z,8.2
2023-01-31T09:31:48.365Z,8.5
2023-01-31T09:44:48.439Z,8.4
2023-01-31T09:57:48.614Z,9.2
2023-01-31T10:10:48.688Z,9.4
2023-01-31T10:17:27.031Z,9.4
2023-01-31T10:30:26.495Z,9.5
2023-01-31T10:43:26.537Z,8.7
2023-01-31T10:56:26.466Z,9.6
2023-01-31T11:09:26.493Z,9.4
2023-01-31T11:22:26.508Z,9.2
2023-01-31T11:35:26.508Z,9.0
2023-01-31T11:48:26.548Z,9.5
2023-01-31T12:01:26.571Z,10.1
2023-01-31T12:14:26.571Z,10.4
2023-01-31T12:27:26.604Z,10.1
2023-01-31T12:40:28.274Z,10.2
2023-01-31T12:53:26.617Z,10.0
2023-01-31T13:06:26.665Z,10.3
2023-01-31T13:19:26.667Z,10.8
2023-01-31T13:32:26.699Z,10.0
2023-01-31T13:45:26.724Z,9.9
2023-01-31T13:58:26.746Z,10.4
2023-01-31T14:12:26.775Z,10.7
2023-01-31T14:25:26.755Z,9.4
2023-01-31T14:38:26.740Z,8.4
2023-01-31T14:51:26.817Z,7.3
2023-01-31T15:04:26.765Z,7.0
2023-01-31T15:17:35.848Z,6.8
2023-01-31T15:30:26.796Z,7.4
2023-01-31T15:43:26.825Z,7.3
2023-01-31T15:56:26.887Z,5.6
2023-01-31T16:09:26.867Z,4.2
2023-01-31T16:22:26.915Z,3.1
2023-01-31T16:35:27.068Z,2.7
2023-01-31T16:48:27.091Z,2.4
2023-01-31T17:00:27.191Z,2.0
2023-01-31T17:12:27.273Z,1.6
2023-01-31T17:24:27.429Z,1.4
2023-01-31T17:36:27.440Z,1.2
2023-01-31T17:48:27.460Z,1.4
2023-01-31T18:00:27.456Z,1.4
2023-01-31T18:12:27.522Z,1.3
2023-01-31T18:15:03.739Z,1.3
2023-01-31T18:27:03.613Z,0.7
2023-01-31T18:39:03.698Z,0.4
2023-01-31T18:51:03.695Z,0.8
2023-01-31T19:04:03.823Z,0.3
2023-01-31T19:16:03.906Z,0.5
2023-01-31T19:28:03.883Z,0.6
2023-01-31T19:40:03.847Z,0.1
2023-01-31T19:52:03.830Z,-0.1
2023-01-31T20:04:04.295Z,-0.2
2023-01-31T20:16:03.953Z,0.3
2023-01-31T20:28:03.998Z,0.2
2023-01-31T20:40:04.099Z,0.3
2023-01-31T20:52:04.201Z,0.6
2023-01-31T21:04:04.213Z,0.2
2023-01-31T21:16:04.395Z,0.0
2023-01-31T21:28:04.296Z,-0.2
2023-01-31T21:40:04.404Z,-0.1
2023-01-31T21:52:04.362Z,0.0
2023-01-31T22:04:04.362Z,-0.6
2023-01-31T22:16:04.467Z,-0.8
2023-01-31T22:23:18.710Z,-0.5
2023-01-31T22:28:45.626Z,-0.4
2023-01-31T22:40:45.056Z,-0.6
2023-01-31T22:52:45.431Z,-0.8
2023-01-31T23:04:45.486Z,-0.4
2023-01-31T23:16:45.539Z,-1.0
2023-01-31T23:28:45.696Z,-0.7
2023-01-31T23:40:45.746Z,-0.6
2023-01-31T23:52:45.791Z,-0.7
